Time;durP1;ratioP1;P1;durP2;ratioP2;P2;SDS_P1;SDS_P2;PMS_P1;PMS_P2;Temp;Humidity;BMP_temperature;BMP_pressure;BME280_temperature;BME280_humidity;BME280_pressure;Samples;Min_cycle;Max_cycle;Signal;HPM_P1;HPM_P2
2023/07/25 00:00:06;;;;;;;5.87;4.07;;;;;;;;;;4971443;28;20259;-66
2023/07/25 00:02:33;;;;;;;6.37;4.33;;;;;;;;;;4970137;28;20189;-65
2023/07/25 00:05:00;;;;;;;6.80;4.33;;;;;;;;;;4971020;28;20205;-65
2023/07/25 00:07:27;;;;;;;5.80;4.10;;;;;;;;;;4970519;28;20280;-66
2023/07/25 00:09:56;;;;;;;7.53;4.70;;;;;;;;;;4970569;28;20225;-66
2023/07/25 00:12:23;;;;;;;6.70;4.60;;;;;;;;;;4969379;28;20204;-66
2023/07/25 00:14:50;;;;;;;6.33;4.37;;;;;;;;;;4969330;28;20713;-66
2023/07/25 00:17:34;;;;;;;5.97;4.67;;;;;;;;;;4952896;28;20220;-66
2023/07/25 00:20:01;;;;;;;5.73;4.40;;;;;;;;;;4970802;28;20219;-66
2023/07/25 00:22:45;;;;;;;6.40;4.30;;;;;;;;;;4969262;28;20177;-66
2023/07/25 00:25:11;;;;;;;6.13;4.70;;;;;;;;;;4972698;28;20319;-65
2023/07/25 00:27:38;;;;;;;5.73;4.67;;;;;;;;;;4970392;28;20193;-66
2023/07/25 00:30:05;;;;;;;6.10;4.83;;;;;;;;;;4951925;28;20263;-66
2023/07/25 00:32:35;;;;;;;8.43;4.30;;;;;;;;;;4970173;28;20865;-66
2023/07/25 00:35:02;;;;;;;6.00;4.10;;;;;;;;;;4968811;28;20193;-65
2023/07/25 00:37:29;;;;;;;5.83;4.40;;;;;;;;;;4969762;28;20197;-65
2023/07/25 00:39:56;;;;;;;5.63;4.20;;;;;;;;;;4968931;28;20221;-66
2023/07/25 00:42:23;;;;;;;7.43;4.00;;;;;;;;;;4969659;28;20284;-66
2023/07/25 00:44:50;;;;;;;5.50;4.13;;;;;;;;;;4969750;28;20233;-66
2023/07/25 00:47:17;;;;;;;5.07;3.90;;;;;;;;;;4968819;28;20220;-66
2023/07/25 00:50:01;;;;;;;6.90;4.60;;;;;;;;;;4969495;28;20233;-65
2023/07/25 01:28:25;;;;;;;7.23;4.87;;;;;;;;;;4957419;28;20269;-66
2023/07/25 01:30:53;;;;;;;5.97;4.40;;;;;;;;;;4956863;28;20206;-66
2023/07/25 01:33:19;;;;;;;6.67;4.43;;;;;;;;;;4958396;28;20277;-66
2023/07/25 01:35:46;;;;;;;7.43;4.80;;;;;;;;;;4969889;28;20200;-65
2023/07/25 01:38:13;;;;;;;6.07;4.43;;;;;;;;;;4956795;28;20197;-65
2023/07/25 01:40:41;;;;;;;7.50;5.33;;;;;;;;;;4964149;28;20229;-65
2023/07/25 01:43:08;;;;;;;6.97;4.77;;;;;;;;;;4974860;28;20193;-66
2023/07/25 01:45:35;;;;;;;9.47;5.20;;;;;;;;;;4970982;28;20647;-66
2023/07/25 01:48:02;;;;;;;6.20;4.83;;;;;;;;;;4976101;28;20248;-65
2023/07/25 01:50:29;;;;;;;7.07;4.90;;;;;;;;;;4973306;28;20198;-66
2023/07/25 01:52:56;;;;;;;7.07;5.07;;;;;;;;;;4975601;28;20193;-66
2023/07/25 01:55:22;;;;;;;6.77;5.37;;;;;;;;;;4975414;28;20566;-66
2023/07/25 01:57:49;;;;;;;7.43;5.77;;;;;;;;;;4959199;28;20544;-65
2023/07/25 02:00:33;;;;;;;7.47;5.57;;;;;;;;;;4967697;28;20209;-65
2023/07/25 02:03:00;;;;;;;9.17;5.73;;;;;;;;;;4955902;28;20741;-65
2023/07/25 02:05:27;;;;;;;7.70;5.87;;;;;;;;;;4957705;29;20201;-66
2023/07/25 02:07:54;;;;;;;6.07;5.27;;;;;;;;;;4968372;28;20284;-66
2023/07/25 02:10:21;;;;;;;6.63;5.53;;;;;;;;;;4955431;28;20595;-65
2023/07/25 02:12:48;;;;;;;9.13;5.87;;;;;;;;;;4972322;28;20275;-66
2023/07/25 02:15:15;;;;;;;9.07;5.77;;;;;;;;;;4951032;28;20565;-65
2023/07/25 02:17:41;;;;;;;7.83;5.70;;;;;;;;;;4954378;28;20280;-66
2023/07/25 02:20:08;;;;;;;7.90;5.83;;;;;;;;;;4956040;28;20249;-65
2023/07/25 02:22:35;;;;;;;8.40;6.13;;;;;;;;;;4971069;28;20264;-66
2023/07/25 02:25:02;;;;;;;7.30;5.60;;;;;;;;;;4972745;28;20241;-66
2023/07/25 02:27:29;;;;;;;7.67;6.10;;;;;;;;;;4973279;28;20280;-65
2023/07/25 02:29:56;;;;;;;7.77;5.63;;;;;;;;;;4972298;28;20280;-65
2023/07/25 02:32:22;;;;;;;7.63;5.63;;;;;;;;;;4972363;28;20700;-65
2023/07/25 02:35:07;;;;;;;7.27;5.47;;;;;;;;;;4972411;28;20189;-65
2023/07/25 02:37:34;;;;;;;8.00;5.63;;;;;;;;;;4972321;28;20669;-65
2023/07/25 02:40:18;;;;;;;6.93;5.43;;;;;;;;;;4971104;28;20201;-65
2023/07/25 02:42:45;;;;;;;6.93;4.87;;;;;;;;;;4951069;28;20197;-65
2023/07/25 02:45:12;;;;;;;6.13;4.13;;;;;;;;;;4972668;28;20309;-65
2023/07/25 02:47:39;;;;;;;5.97;4.60;;;;;;;;;;4955923;28;20704;-66
2023/07/25 02:50:06;;;;;;;5.87;4.80;;;;;;;;;;4972098;28;20573;-65
2023/07/25 02:52:33;;;;;;;7.53;4.87;;;;;;;;;;4951987;28;20921;-65
2023/07/25 02:54:59;;;;;;;6.07;4.60;;;;;;;;;;4954307;29;20273;-66
2023/07/25 02:57:30;;;;;;;4.37;3.83;;;;;;;;;;4964027;28;20205;-67
2023/07/25 03:00:14;;;;;;;5.13;3.97;;;;;;;;;;4963856;28;20224;-65
2023/07/25 03:02:41;;;;;;;4.83;4.03;;;;;;;;;;4972449;28;20593;-65
2023/07/25 03:05:08;;;;;;;4.67;3.90;;;;;;;;;;4972305;28;20284;-65
2023/07/25 03:07:35;;;;;;;6.47;4.57;;;;;;;;;;4953099;28;20649;-65
2023/07/25 03:10:01;;;;;;;7.50;4.53;;;;;;;;;;4956142;28;20248;-65
2023/07/25 03:12:28;;;;;;;8.97;4.87;;;;;;;;;;4954980;28;20209;-66
2023/07/25 03:14:55;;;;;;;5.80;4.70;;;;;;;;;;4972941;28;20683;-66
2023/07/25 03:17:21;;;;;;;5.60;4.80;;;;;;;;;;4966750;28;20193;-65
2023/07/25 03:20:06;;;;;;;5.63;5.00;;;;;;;;;;4957124;28;20259;-65
2023/07/25 03:22:33;;;;;;;6.57;5.00;;;;;;;;;;4971689;28;20268;-65
2023/07/25 03:25:00;;;;;;;6.40;5.73;;;;;;;;;;4972220;28;20245;-66
2023/07/25 03:27:26;;;;;;;6.77;5.47;;;;;;;;;;4954215;28;20682;-65
2023/07/25 03:29:53;;;;;;;7.87;5.50;;;;;;;;;;4971970;28;20221;-65
2023/07/25 03:32:37;;;;;;;6.60;5.20;;;;;;;;;;4972562;28;20560;-65
2023/07/25 03:35:04;;;;;;;5.90;5.30;;;;;;;;;;4973042;28;20649;-65
2023/07/25 03:37:31;;;;;;;6.23;5.43;;;;;;;;;;4971866;28;20198;-66
2023/07/25 03:39:58;;;;;;;7.53;5.70;;;;;;;;;;4969904;28;20205;-65
2023/07/25 03:42:24;;;;;;;7.53;5.23;;;;;;;;;;4952227;28;20323;-65
2023/07/25 03:44:51;;;;;;;6.33;5.37;;;;;;;;;;4964961;28;20766;-65
2023/07/25 03:47:18;;;;;;;6.83;5.23;;;;;;;;;;4972123;28;20201;-66
2023/07/25 03:49:45;;;;;;;6.70;5.30;;;;;;;;;;4970294;28;20186;-65
2023/07/25 03:52:12;;;;;;;7.03;5.67;;;;;;;;;;4971811;28;20273;-65
2023/07/25 03:54:39;;;;;;;7.53;6.27;;;;;;;;;;4972014;28;20193;-66
2023/07/25 03:57:06;;;;;;;7.20;5.53;;;;;;;;;;4972091;28;20201;-65
2023/07/25 03:59:32;;;;;;;5.23;4.73;;;;;;;;;;4953834;28;20217;-65
2023/07/25 04:01:59;;;;;;;7.67;5.30;;;;;;;;;;4971518;28;20248;-65
2023/07/25 04:04:26;;;;;;;7.60;5.17;;;;;;;;;;4970868;28;20553;-65
2023/07/25 04:07:11;;;;;;;7.80;5.37;;;;;;;;;;4954589;28;20188;-66
2023/07/25 04:09:37;;;;;;;6.93;5.63;;;;;;;;;;4970431;28;20281;-65
2023/07/25 04:12:21;;;;;;;5.53;4.93;;;;;;;;;;4957484;28;20181;-66
2023/07/25 04:14:48;;;;;;;8.53;5.37;;;;;;;;;;4970922;28;20687;-66
2023/07/25 04:17:15;;;;;;;5.87;5.00;;;;;;;;;;4971276;28;20196;-65
2023/07/25 04:19:42;;;;;;;8.93;5.23;;;;;;;;;;4970958;28;20221;-66
2023/07/25 04:22:08;;;;;;;9.90;5.20;;;;;;;;;;4970678;28;20684;-66
2023/07/25 04:24:53;;;;;;;8.33;4.97;;;;;;;;;;4969403;28;20288;-65
2023/07/25 04:27:19;;;;;;;5.37;4.43;;;;;;;;;;4970429;28;20219;-65
2023/07/25 04:29:46;;;;;;;6.07;4.77;;;;;;;;;;4968577;28;20304;-66
2023/07/25 04:32:13;;;;;;;8.50;4.90;;;;;;;;;;4970048;28;21092;-65
2023/07/25 04:34:40;;;;;;;6.90;4.33;;;;;;;;;;4971492;28;20248;-65
2023/07/25 04:37:07;;;;;;;6.30;4.60;;;;;;;;;;4967149;28;20645;-65
2023/07/25 04:39:33;;;;;;;6.10;4.70;;;;;;;;;;4969516;28;20233;-66
2023/07/25 04:42:00;;;;;;;6.17;3.90;;;;;;;;;;4970436;28;20193;-65
2023/07/25 04:44:27;;;;;;;4.70;4.00;;;;;;;;;;4971131;28;20323;-65
2023/07/25 04:46:53;;;;;;;5.93;4.37;;;;;;;;;;4972916;28;20189;-65
2023/07/25 04:49:20;;;;;;;7.50;4.43;;;;;;;;;;4970675;28;20198;-65
2023/07/25 04:52:04;;;;;;;6.60;4.00;;;;;;;;;;4962253;28;20229;-65
2023/07/25 04:54:31;;;;;;;7.00;4.50;;;;;;;;;;4964702;28;20217;-65
2023/07/25 04:56:58;;;;;;;6.00;4.23;;;;;;;;;;4947885;28;20244;-64
2023/07/25 04:59:26;;;;;;;5.67;4.40;;;;;;;;;;4970227;28;20217;-63
2023/07/25 05:01:53;;;;;;;8.67;4.30;;;;;;;;;;4964208;28;20292;-63
2023/07/25 05:04:37;;;;;;;5.40;4.10;;;;;;;;;;4968383;28;20181;-64
2023/07/25 05:07:04;;;;;;;5.90;4.57;;;;;;;;;;4963724;28;20335;-64
2023/07/25 05:09:30;;;;;;;4.70;4.03;;;;;;;;;;4961775;28;20289;-65
2023/07/25 05:11:57;;;;;;;5.50;4.30;;;;;;;;;;4968189;28;20193;-64
2023/07/25 05:14:24;;;;;;;6.33;3.90;;;;;;;;;;4968619;28;20932;-64
2023/07/25 05:16:53;;;;;;;5.70;3.90;;;;;;;;;;4965869;28;20185;-64
2023/07/25 05:19:19;;;;;;;5.07;4.17;;;;;;;;;;4968924;28;20261;-64
2023/07/25 05:21:47;;;;;;;4.00;3.57;;;;;;;;;;4966664;28;20221;-64
2023/07/25 05:24:31;;;;;;;4.23;3.30;;;;;;;;;;4968441;28;20530;-63
2023/07/25 05:26:58;;;;;;;5.70;3.87;;;;;;;;;;4960802;28;20189;-65
2023/07/25 05:29:26;;;;;;;6.63;4.10;;;;;;;;;;4967621;28;20263;-64
2023/07/25 05:31:53;;;;;;;4.93;4.20;;;;;;;;;;4967149;28;20198;-64
2023/07/25 05:34:20;;;;;;;5.27;3.73;;;;;;;;;;4960867;28;20217;-64
2023/07/25 05:37:05;;;;;;;4.13;3.73;;;;;;;;;;4956148;28;20260;-65
2023/07/25 05:39:32;;;;;;;6.57;4.37;;;;;;;;;;4938618;28;20225;-65
2023/07/25 05:41:59;;;;;;;8.20;4.20;;;;;;;;;;4949867;28;20774;-65
2023/07/25 05:44:26;;;;;;;7.07;4.07;;;;;;;;;;4968401;28;20574;-64
2023/07/25 05:46:53;;;;;;;5.90;4.40;;;;;;;;;;4971349;28;20709;-64
2023/07/25 05:49:19;;;;;;;7.33;3.97;;;;;;;;;;4973048;28;20217;-64
2023/07/25 05:51:46;;;;;;;6.00;4.50;;;;;;;;;;4972893;28;20206;-64
2023/07/25 05:54:13;;;;;;;6.97;4.47;;;;;;;;;;4971869;28;20276;-65
2023/07/25 05:56:40;;;;;;;5.83;3.60;;;;;;;;;;4972206;28;20252;-66
2023/07/25 05:59:07;;;;;;;4.63;3.80;;;;;;;;;;4972784;28;20523;-65
2023/07/25 06:01:34;;;;;;;5.00;3.73;;;;;;;;;;4962300;28;20217;-65
2023/07/25 06:04:01;;;;;;;4.67;3.50;;;;;;;;;;4971212;28;20285;-65
2023/07/25 06:06:29;;;;;;;7.80;4.10;;;;;;;;;;4972396;28;20292;-64
2023/07/25 06:08:56;;;;;;;5.97;3.87;;;;;;;;;;4955619;28;20252;-64
2023/07/25 06:11:23;;;;;;;6.97;4.10;;;;;;;;;;4973510;28;20204;-64
2023/07/25 06:13:52;;;;;;;5.20;3.50;;;;;;;;;;4955153;28;20260;-65
2023/07/25 06:16:19;;;;;;;4.43;3.60;;;;;;;;;;4952002;28;20233;-65
2023/07/25 06:19:03;;;;;;;6.70;4.00;;;;;;;;;;4959223;28;20280;-64
2023/07/25 06:21:30;;;;;;;8.17;4.40;;;;;;;;;;4956019;28;20299;-65
2023/07/25 06:23:57;;;;;;;4.20;3.47;;;;;;;;;;4965046;28;20229;-65
2023/07/25 06:26:26;;;;;;;8.00;4.00;;;;;;;;;;4956477;28;20201;-66
2023/07/25 06:28:53;;;;;;;4.33;3.83;;;;;;;;;;4953153;28;20212;-66
2023/07/25 06:31:20;;;;;;;5.60;3.90;;;;;;;;;;4971899;28;20264;-67
2023/07/25 06:33:47;;;;;;;4.97;3.80;;;;;;;;;;4950110;28;20277;-66
2023/07/25 06:36:14;;;;;;;5.37;3.47;;;;;;;;;;4967052;28;20209;-65
2023/07/25 06:38:41;;;;;;;4.20;3.50;;;;;;;;;;4970579;28;20198;-66
2023/07/25 06:41:08;;;;;;;5.70;3.30;;;;;;;;;;4972374;28;20221;-67
2023/07/25 06:43:35;;;;;;;7.40;3.90;;;;;;;;;;4971202;28;20249;-66
2023/07/25 06:46:21;;;;;;;5.50;3.80;;;;;;;;;;4941451;28;20260;-65
2023/07/25 06:48:48;;;;;;;5.20;3.57;;;;;;;;;;4970181;28;20272;-66
2023/07/25 06:51:34;;;;;;;4.77;3.20;;;;;;;;;;4967980;28;20184;-67
2023/07/25 06:54:01;;;;;;;4.73;3.17;;;;;;;;;;4967814;28;20329;-67
2023/07/25 06:56:28;;;;;;;4.63;3.17;;;;;;;;;;4970017;28;20208;-68
2023/07/25 06:59:07;;;;;;;4.87;3.20;;;;;;;;;;4969892;28;20248;-66
2023/07/25 07:01:35;;;;;;;3.60;3.00;;;;;;;;;;4969577;28;20224;-67
2023/07/25 07:04:02;;;;;;;6.93;3.33;;;;;;;;;;4969326;28;20181;-67
2023/07/25 07:06:29;;;;;;;4.73;2.77;;;;;;;;;;4969023;28;20209;-68
2023/07/25 07:08:57;;;;;;;5.77;2.90;;;;;;;;;;4968406;28;20613;-67
2023/07/25 07:11:24;;;;;;;3.53;2.00;;;;;;;;;;4967437;28;20280;-66
2023/07/25 07:13:52;;;;;;;4.17;2.30;;;;;;;;;;4969072;28;20284;-67
2023/07/25 07:16:19;;;;;;;7.33;2.97;;;;;;;;;;4969140;28;20186;-67
2023/07/25 07:18:45;;;;;;;3.37;2.20;;;;;;;;;;4951082;28;20186;-67
2023/07/25 07:21:12;;;;;;;3.80;2.50;;;;;;;;;;4928377;28;20261;-66
2023/07/25 07:23:39;;;;;;;3.93;2.87;;;;;;;;;;4968678;28;20602;-68
2023/07/25 07:26:06;;;;;;;3.30;3.00;;;;;;;;;;4967713;28;20194;-66
2023/07/25 07:28:33;;;;;;;3.77;2.53;;;;;;;;;;4969863;28;20208;-67
2023/07/25 07:30:59;;;;;;;4.50;3.13;;;;;;;;;;4971402;28;20224;-67
2023/07/25 07:33:26;;;;;;;3.90;2.80;;;;;;;;;;4970967;28;20197;-66
2023/07/25 07:35:53;;;;;;;3.53;2.90;;;;;;;;;;4968835;28;20905;-66
2023/07/25 07:38:20;;;;;;;3.67;2.60;;;;;;;;;;4969875;28;20224;-65
2023/07/25 07:40:47;;;;;;;3.77;2.40;;;;;;;;;;4968523;28;20221;-65
2023/07/25 07:43:14;;;;;;;5.33;2.40;;;;;;;;;;4969110;28;20193;-66
2023/07/25 07:45:41;;;;;;;4.07;2.70;;;;;;;;;;4970865;28;20193;-66
2023/07/25 07:48:08;;;;;;;4.47;2.30;;;;;;;;;;4952677;28;20276;-65
2023/07/25 07:50:35;;;;;;;2.90;2.07;;;;;;;;;;4949785;28;20661;-66
2023/07/25 07:53:03;;;;;;;2.87;2.57;;;;;;;;;;4970437;28;20777;-67
2023/07/25 07:55:30;;;;;;;3.13;2.70;;;;;;;;;;4970878;28;20201;-67
2023/07/25 07:57:56;;;;;;;4.63;2.60;;;;;;;;;;4970370;28;20729;-68
2023/07/25 08:00:24;;;;;;;3.87;2.43;;;;;;;;;;4969127;28;20205;-67
2023/07/25 08:02:51;;;;;;;3.40;2.47;;;;;;;;;;4971032;28;20573;-67
2023/07/25 08:05:18;;;;;;;5.23;2.40;;;;;;;;;;4970871;28;20204;-65
2023/07/25 08:07:45;;;;;;;2.47;2.23;;;;;;;;;;4970026;28;20213;-65
2023/07/25 08:10:12;;;;;;;4.97;2.30;;;;;;;;;;4953931;28;20220;-65
2023/07/25 08:12:42;;;;;;;3.10;2.20;;;;;;;;;;4968209;28;20666;-67
2023/07/25 08:15:09;;;;;;;4.90;2.60;;;;;;;;;;4970847;28;20266;-65
2023/07/25 08:17:36;;;;;;;4.47;2.30;;;;;;;;;;4968206;28;20608;-63
2023/07/25 08:20:05;;;;;;;3.87;2.00;;;;;;;;;;4970198;28;20765;-72
2023/07/25 08:22:32;;;;;;;3.50;2.17;;;;;;;;;;4967141;28;20231;-68
2023/07/25 08:24:59;;;;;;;2.10;1.50;;;;;;;;;;4964807;28;20193;-68
2023/07/25 08:27:26;;;;;;;2.13;1.90;;;;;;;;;;4945883;28;20297;-68
2023/07/25 08:29:53;;;;;;;5.77;1.83;;;;;;;;;;4959942;28;20583;-69
2023/07/25 08:32:20;;;;;;;3.60;1.90;;;;;;;;;;4951869;28;20275;-70
2023/07/25 08:34:49;;;;;;;2.80;1.77;;;;;;;;;;4949964;29;20198;-75
2023/07/25 08:37:16;;;;;;;4.47;1.90;;;;;;;;;;4966034;28;20208;-78
2023/07/25 08:39:44;;;;;;;3.07;1.90;;;;;;;;;;4952533;28;20200;-75
2023/07/25 08:42:11;;;;;;;2.40;1.67;;;;;;;;;;4967131;28;20280;-64
2023/07/25 08:44:57;;;;;;;2.30;1.70;;;;;;;;;;4950449;29;20308;-67
2023/07/25 08:47:26;;;;;;;2.50;1.60;;;;;;;;;;4934292;29;20181;-72
2023/07/25 08:49:56;;;;;;;3.90;1.53;;;;;;;;;;4947661;28;20304;-65
2023/07/25 08:52:27;;;;;;;3.90;2.03;;;;;;;;;;4952127;28;20205;-74
2023/07/25 08:54:55;;;;;;;2.40;1.60;;;;;;;;;;4950744;29;20194;-73
2023/07/25 08:57:27;;;;;;;5.07;1.57;;;;;;;;;;4961538;28;20213;-71
2023/07/25 08:59:59;;;;;;;4.43;1.80;;;;;;;;;;4965431;28;20197;-70
2023/07/25 09:02:26;;;;;;;4.93;2.00;;;;;;;;;;4948451;28;20225;-70
2023/07/25 09:04:56;;;;;;;3.03;1.70;;;;;;;;;;4931270;28;20720;-70
2023/07/25 09:07:23;;;;;;;4.17;1.67;;;;;;;;;;4965998;28;20618;-64
2023/07/25 09:09:50;;;;;;;3.37;1.60;;;;;;;;;;4961708;28;20202;-74
2023/07/25 09:12:19;;;;;;;2.93;1.60;;;;;;;;;;4949991;28;20264;-71
2023/07/25 09:15:03;;;;;;;4.53;1.57;;;;;;;;;;4963832;28;20181;-58
2023/07/25 09:17:30;;;;;;;2.87;1.67;;;;;;;;;;4966938;28;20656;-59
2023/07/25 09:19:57;;;;;;;4.97;1.77;;;;;;;;;;4967538;28;20194;-59
2023/07/25 09:22:28;;;;;;;4.77;1.70;;;;;;;;;;4969138;28;20225;-58
2023/07/25 09:24:55;;;;;;;2.23;1.40;;;;;;;;;;4935609;28;20225;-60
2023/07/25 09:27:22;;;;;;;13.40;1.80;;;;;;;;;;4951788;28;20828;-60
2023/07/25 09:29:52;;;;;;;2.53;1.27;;;;;;;;;;4971734;28;20192;-61
2023/07/25 09:32:24;;;;;;;3.37;1.37;;;;;;;;;;4973920;28;20201;-58
2023/07/25 09:34:58;;;;;;;2.40;1.50;;;;;;;;;;4954126;28;20282;-60
2023/07/25 09:37:24;;;;;;;2.50;1.30;;;;;;;;;;4956757;28;20177;-68
2023/07/25 09:39:51;;;;;;;2.10;1.20;;;;;;;;;;4970686;28;20187;-64
2023/07/25 09:42:22;;;;;;;3.87;1.40;;;;;;;;;;4973295;28;20264;-71
2023/07/25 09:44:51;;;;;;;4.70;1.80;;;;;;;;;;4955975;28;20273;-70
2023/07/25 09:47:25;;;;;;;3.13;1.57;;;;;;;;;;4969613;28;20553;-71
2023/07/25 09:49:54;;;;;;;2.80;1.50;;;;;;;;;;4952450;28;20190;-70
2023/07/25 09:52:39;;;;;;;2.97;1.50;;;;;;;;;;4957594;28;20189;-67
2023/07/25 09:55:06;;;;;;;3.43;1.77;;;;;;;;;;4973628;28;20291;-70
2023/07/25 09:57:52;;;;;;;3.43;1.63;;;;;;;;;;4973623;28;20173;-69
2023/07/25 10:00:20;;;;;;;2.17;1.30;;;;;;;;;;4954947;28;20193;-67
2023/07/25 10:02:47;;;;;;;2.30;1.50;;;;;;;;;;4963661;28;20256;-72
2023/07/25 10:05:14;;;;;;;4.17;1.50;;;;;;;;;;4956406;28;20203;-71
2023/07/25 10:07:41;;;;;;;4.50;1.40;;;;;;;;;;4951010;28;20299;-71
2023/07/25 10:10:08;;;;;;;2.50;1.27;;;;;;;;;;4971739;28;20302;-67
2023/07/25 10:12:35;;;;;;;2.07;1.37;;;;;;;;;;4955235;28;20229;-68
2023/07/25 10:15:02;;;;;;;3.10;1.20;;;;;;;;;;4972892;28;20540;-71
2023/07/25 10:17:46;;;;;;;4.60;1.20;;;;;;;;;;4955280;28;20177;-71
2023/07/25 10:20:23;;;;;;;1.23;1.00;;;;;;;;;;4955346;28;20196;-66
2023/07/25 10:23:09;;;;;;;2.20;0.90;;;;;;;;;;4954341;28;20216;-70
2023/07/25 10:25:36;;;;;;;2.40;1.17;;;;;;;;;;4972043;28;20186;-71
2023/07/25 10:28:04;;;;;;;1.60;1.10;;;;;;;;;;4969654;28;20598;-70
2023/07/25 10:30:31;;;;;;;3.33;1.20;;;;;;;;;;4963178;28;20246;-70
2023/07/25 10:33:01;;;;;;;1.90;1.10;;;;;;;;;;4971570;28;20213;-69
2023/07/25 10:35:38;;;;;;;2.40;1.20;;;;;;;;;;4971814;28;20220;-69
2023/07/25 10:38:10;;;;;;;4.20;1.23;;;;;;;;;;4953204;28;20276;-68
2023/07/25 10:40:53;;;;;;;3.80;1.30;;;;;;;;;;4960482;28;20189;-70
2023/07/25 10:43:21;;;;;;;1.67;1.27;;;;;;;;;;4968846;28;20204;-68
2023/07/25 10:45:49;;;;;;;4.93;2.40;;;;;;;;;;4966072;28;20318;-69
2023/07/25 10:48:26;;;;;;;4.80;1.33;;;;;;;;;;4973687;28;20853;-70
2023/07/25 10:50:57;;;;;;;2.50;1.40;;;;;;;;;;4968867;28;20190;-69
2023/07/25 10:53:24;;;;;;;3.30;1.30;;;;;;;;;;4970761;28;20186;-72
2023/07/25 10:56:03;;;;;;;3.23;1.27;;;;;;;;;;4955243;28;20213;-71
2023/07/25 10:58:35;;;;;;;1.90;1.10;;;;;;;;;;4946516;28;20309;-69
2023/07/25 11:01:02;;;;;;;4.33;1.40;;;;;;;;;;4955129;28;20213;-70
2023/07/25 11:03:32;;;;;;;2.20;1.30;;;;;;;;;;4964654;28;20277;-69
2023/07/25 11:06:08;;;;;;;4.43;1.30;;;;;;;;;;4953148;29;20595;-70
2023/07/25 11:08:36;;;;;;;3.20;1.30;;;;;;;;;;4960942;28;20190;-71
2023/07/25 11:11:10;;;;;;;1.90;1.27;;;;;;;;;;4972404;28;20193;-69
2023/07/25 11:13:37;;;;;;;4.47;1.30;;;;;;;;;;4951119;29;20205;-70
2023/07/25 11:16:04;;;;;;;3.27;1.20;;;;;;;;;;4963451;28;20217;-73
2023/07/25 11:18:33;;;;;;;1.77;1.07;;;;;;;;;;4951214;28;20202;-70
2023/07/25 11:21:00;;;;;;;2.03;1.13;;;;;;;;;;4971363;28;20224;-69
2023/07/25 11:23:27;;;;;;;2.30;1.13;;;;;;;;;;4968425;28;20205;-70
2023/07/25 11:25:58;;;;;;;1.73;1.27;;;;;;;;;;4969709;28;20205;-71
2023/07/25 11:28:28;;;;;;;2.13;0.90;;;;;;;;;;4954450;28;20663;-72
2023/07/25 11:30:55;;;;;;;2.00;1.13;;;;;;;;;;4951785;28;20226;-70
2023/07/25 11:33:22;;;;;;;3.63;1.33;;;;;;;;;;4943263;28;20280;-72
2023/07/25 11:35:52;;;;;;;2.50;1.00;;;;;;;;;;4971493;28;20192;-71
2023/07/25 11:38:36;;;;;;;1.70;1.00;;;;;;;;;;4942152;28;20519;-72
2023/07/25 11:41:04;;;;;;;3.70;1.10;;;;;;;;;;4964563;28;20199;-73
2023/07/25 11:43:31;;;;;;;2.00;0.80;;;;;;;;;;4953748;28;20237;-72
2023/07/25 11:45:58;;;;;;;2.30;0.70;;;;;;;;;;4949051;28;20197;-73
2023/07/25 11:48:25;;;;;;;3.00;0.87;;;;;;;;;;4952139;28;20207;-72
2023/07/25 11:50:52;;;;;;;2.37;0.80;;;;;;;;;;4953893;28;20225;-74
2023/07/25 11:53:22;;;;;;;1.50;1.00;;;;;;;;;;4951707;28;20197;-73
2023/07/25 11:55:50;;;;;;;1.97;0.90;;;;;;;;;;4970490;28;20272;-73
2023/07/25 11:58:17;;;;;;;1.53;0.80;;;;;;;;;;4953026;28;20272;-74
2023/07/25 12:00:48;;;;;;;1.10;0.70;;;;;;;;;;4971519;28;20293;-72
2023/07/25 12:03:16;;;;;;;1.40;0.60;;;;;;;;;;4969198;28;20217;-73
2023/07/25 12:05:44;;;;;;;3.30;0.97;;;;;;;;;;4934573;28;20186;-72
2023/07/25 12:08:11;;;;;;;1.80;0.80;;;;;;;;;;4949229;28;20198;-73
2023/07/25 12:10:38;;;;;;;2.37;0.80;;;;;;;;;;4941588;28;20701;-72
2023/07/25 12:13:23;;;;;;;1.33;0.53;;;;;;;;;;4965399;28;20174;-71
2023/07/25 12:15:49;;;;;;;2.17;0.70;;;;;;;;;;4970401;28;20296;-73
2023/07/25 12:18:26;;;;;;;1.70;0.80;;;;;;;;;;4952741;28;20186;-73
2023/07/25 12:20:53;;;;;;;1.33;0.80;;;;;;;;;;4970499;28;20207;-72
2023/07/25 12:23:28;;;;;;;3.80;0.77;;;;;;;;;;4949770;28;20244;-73
2023/07/25 12:25:55;;;;;;;0.77;0.60;;;;;;;;;;4969792;28;20193;-68
2023/07/25 12:28:22;;;;;;;2.33;0.80;;;;;;;;;;4965930;28;20255;-73
2023/07/25 12:30:49;;;;;;;0.93;0.50;;;;;;;;;;4961308;28;20190;-74
2023/07/25 12:33:16;;;;;;;1.07;0.70;;;;;;;;;;4946182;29;20230;-75
2023/07/25 12:35:43;;;;;;;3.47;1.07;;;;;;;;;;4950542;29;20225;-74
2023/07/25 12:38:10;;;;;;;1.17;0.90;;;;;;;;;;4954625;28;20196;-72
2023/07/25 12:40:37;;;;;;;3.20;0.97;;;;;;;;;;4966886;28;20192;-74
2023/07/25 12:43:03;;;;;;;4.30;1.63;;;;;;;;;;4952312;28;20224;-72
2023/07/25 12:45:32;;;;;;;1.80;0.87;;;;;;;;;;4913628;29;20694;-72
2023/07/25 12:47:59;;;;;;;3.30;1.03;;;;;;;;;;4926018;29;20205;-73
2023/07/25 12:50:26;;;;;;;2.23;0.93;;;;;;;;;;4949409;29;20292;-77
2023/07/25 12:52:52;;;;;;;2.80;0.90;;;;;;;;;;4948839;29;20202;-73
2023/07/25 12:55:19;;;;;;;1.47;0.90;;;;;;;;;;4932723;29;20202;-74
2023/07/25 12:57:47;;;;;;;1.37;0.70;;;;;;;;;;4949267;28;20201;-70
2023/07/25 13:00:14;;;;;;;1.13;0.70;;;;;;;;;;4950243;29;20196;-70
2023/07/25 13:02:41;;;;;;;1.27;0.80;;;;;;;;;;4932477;29;20210;-71
2023/07/25 13:05:08;;;;;;;1.40;0.90;;;;;;;;;;4949665;29;20549;-72
2023/07/25 13:07:38;;;;;;;3.43;1.00;;;;;;;;;;4932667;29;20202;-72
2023/07/25 13:10:06;;;;;;;2.00;0.90;;;;;;;;;;4929177;29;20194;-71
2023/07/25 13:12:33;;;;;;;1.67;0.60;;;;;;;;;;4935073;28;20210;-74
2023/07/25 13:15:01;;;;;;;1.10;0.70;;;;;;;;;;4948908;29;20995;-72
2023/07/25 13:17:28;;;;;;;3.33;0.87;;;;;;;;;;4945817;29;20863;-71
2023/07/25 13:19:55;;;;;;;1.70;0.93;;;;;;;;;;4944491;29;20289;-71
2023/07/25 13:22:22;;;;;;;1.70;0.90;;;;;;;;;;4949275;29;20214;-72
2023/07/25 13:24:55;;;;;;;1.50;0.83;;;;;;;;;;4948626;29;20260;-71
2023/07/25 13:27:39;;;;;;;2.90;1.10;;;;;;;;;;4946136;29;20235;-71
2023/07/25 13:30:06;;;;;;;1.20;0.90;;;;;;;;;;4926558;28;20194;-72
2023/07/25 13:32:33;;;;;;;3.70;0.80;;;;;;;;;;4947342;29;20261;-72
2023/07/25 13:35:00;;;;;;;1.53;0.77;;;;;;;;;;4929574;29;20292;-70
2023/07/25 13:37:28;;;;;;;0.93;0.70;;;;;;;;;;4948228;29;20204;-70
2023/07/25 13:39:54;;;;;;;1.90;0.90;;;;;;;;;;4911217;29;20233;-70
2023/07/25 13:42:22;;;;;;;1.97;1.00;;;;;;;;;;4932611;29;20214;-70
2023/07/25 13:44:49;;;;;;;3.03;0.90;;;;;;;;;;4961396;28;20237;-70
2023/07/25 13:47:16;;;;;;;2.47;1.10;;;;;;;;;;4970465;28;20202;-71
2023/07/25 13:49:45;;;;;;;2.70;0.93;;;;;;;;;;4934023;28;20277;-71
2023/07/25 13:52:12;;;;;;;2.63;1.10;;;;;;;;;;4967286;28;20534;-71
2023/07/25 13:54:39;;;;;;;2.03;1.10;;;;;;;;;;4930689;28;20684;-71
2023/07/25 13:57:06;;;;;;;1.93;0.93;;;;;;;;;;4967470;28;20193;-70
2023/07/25 13:59:36;;;;;;;2.67;1.00;;;;;;;;;;4966325;28;20247;-72
2023/07/25 14:02:04;;;;;;;2.87;1.10;;;;;;;;;;4967396;28;20562;-72
2023/07/25 14:04:30;;;;;;;2.07;1.00;;;;;;;;;;4966677;28;20308;-72
2023/07/25 14:06:57;;;;;;;4.37;1.00;;;;;;;;;;4969295;28;20209;-70
2023/07/25 14:09:24;;;;;;;1.53;0.93;;;;;;;;;;4971125;28;20196;-68
2023/07/25 14:11:51;;;;;;;2.43;1.10;;;;;;;;;;4971503;28;20201;-68
2023/07/25 14:14:17;;;;;;;3.23;1.30;;;;;;;;;;4971026;28;20213;-69
2023/07/25 14:17:03;;;;;;;2.23;0.87;;;;;;;;;;4969472;28;20537;-71
2023/07/25 14:19:30;;;;;;;1.40;0.90;;;;;;;;;;4970919;28;20201;-69
2023/07/25 14:22:14;;;;;;;1.80;1.00;;;;;;;;;;4966541;28;20202;-68
2023/07/25 14:24:41;;;;;;;2.40;0.97;;;;;;;;;;4970918;28;20237;-69
2023/07/25 14:27:09;;;;;;;1.27;0.80;;;;;;;;;;4968143;28;20906;-67
2023/07/25 14:29:35;;;;;;;1.93;0.90;;;;;;;;;;4970357;28;20582;-70
2023/07/25 14:32:02;;;;;;;1.57;0.90;;;;;;;;;;4968412;28;20331;-69
2023/07/25 14:34:29;;;;;;;3.43;0.80;;;;;;;;;;4952237;28;20204;-67
2023/07/25 14:36:56;;;;;;;1.60;1.00;;;;;;;;;;4970494;28;20201;-67
2023/07/25 14:39:23;;;;;;;1.77;0.97;;;;;;;;;;4968884;28;20189;-69
2023/07/25 14:41:51;;;;;;;2.07;1.17;;;;;;;;;;4951607;28;20280;-68
2023/07/25 14:44:17;;;;;;;1.20;0.90;;;;;;;;;;4968352;28;20233;-68
2023/07/25 14:46:44;;;;;;;2.17;0.97;;;;;;;;;;4967095;28;20201;-68
2023/07/25 14:49:29;;;;;;;3.87;0.90;;;;;;;;;;4967170;28;20178;-69
2023/07/25 14:51:55;;;;;;;2.20;0.93;;;;;;;;;;4968266;28;20197;-69
2023/07/25 14:54:22;;;;;;;2.63;1.03;;;;;;;;;;4936560;28;20608;-69
2023/07/25 14:56:49;;;;;;;1.63;1.00;;;;;;;;;;4971744;28;20198;-69
2023/07/25 14:59:16;;;;;;;2.20;1.10;;;;;;;;;;4962673;28;20245;-70
2023/07/25 15:01:43;;;;;;;3.10;1.10;;;;;;;;;;4973438;28;20181;-70
2023/07/25 15:04:10;;;;;;;1.70;1.00;;;;;;;;;;4973291;28;20280;-70
2023/07/25 15:06:37;;;;;;;2.13;0.87;;;;;;;;;;4950472;28;20613;-66
2023/07/25 15:09:03;;;;;;;2.27;1.00;;;;;;;;;;4984123;28;20194;-66
2023/07/25 15:11:32;;;;;;;3.70;1.30;;;;;;;;;;4953770;29;20226;-67
2023/07/25 15:13:59;;;;;;;2.60;0.80;;;;;;;;;;4963315;28;20665;-66
2023/07/25 15:16:43;;;;;;;2.73;1.30;;;;;;;;;;4969162;28;20307;-66
2023/07/25 15:19:10;;;;;;;1.37;1.00;;;;;;;;;;4954307;29;20193;-66
2023/07/25 15:21:54;;;;;;;2.67;1.30;;;;;;;;;;4954083;29;20265;-67
2023/07/25 15:24:21;;;;;;;3.63;1.30;;;;;;;;;;4954216;29;20194;-66
2023/07/25 15:26:49;;;;;;;2.10;1.00;;;;;;;;;;4954089;29;20289;-66
2023/07/25 15:29:16;;;;;;;3.20;0.97;;;;;;;;;;4953843;29;20194;-66